Kent, Iowa
Current Conditions -  °F | °C
As of 6:15 PM on Sunday 23 Nov 2014 (Local Time) from KCSQ Reporting Station
Unknown Precip Unknown Precip  
Wind Chill: 31°   Ceiling: 1300
Heat Index: 41°   Visibility: 6mi
Dew Point: 41°   Wind: 25mph
Humidity: 100%   Direction: 330°NNW
Pressure: 29.4"   Gusts: 36mph
Location:  40.8856°N, 94.5654°W
Report Text: KCSQ 240015Z AUTO 33022G31KT 6SM +UP FEW009 BKN013 OVC039 05/05 A2940 RMK AO2
Loading
Personal Weather Stations






























Interactive Weather Map New forecast layout! Learn more

10-Day Weather Forecast

Advertisements
Track Severe Weather on mobile